Time;durP1;ratioP1;P1;durP2;ratioP2;P2;SDS_P1;SDS_P2;PMS_P1;PMS_P2;Temp;Humidity;BMP_temperature;BMP_pressure;BME280_temperature;BME280_humidity;BME280_pressure;Samples;Min_cycle;Max_cycle;Signal;HPM_P1;HPM_P2
2023/12/08 00:01:16;;;;;;;14.88;8.30;;;;;;;-0.54;100.00;100726.03;6125239;23;20022;-82
2023/12/08 00:03:44;;;;;;;12.57;8.95;;;;;;;-0.56;100.00;100725.13;6100846;23;20025;-81
2023/12/08 00:06:10;;;;;;;13.88;8.30;;;;;;;-0.58;100.00;100718.16;6126641;23;20045;-81
2023/12/08 00:08:41;;;;;;;14.77;9.00;;;;;;;-0.60;100.00;100704.38;6127594;23;20097;-82
2023/12/08 00:11:11;;;;;;;12.50;7.88;;;;;;;-0.63;100.00;100694.84;6125444;23;20021;-82
2023/12/08 00:13:38;;;;;;;11.77;7.50;;;;;;;-0.63;100.00;100687.13;6101858;23;20032;-81
2023/12/08 00:16:05;;;;;;;16.50;8.50;;;;;;;-0.66;100.00;100676.75;6101083;23;20108;-82
2023/12/08 00:18:32;;;;;;;16.83;8.48;;;;;;;-0.65;100.00;100672.47;6102246;23;20443;-81
2023/12/08 00:21:01;;;;;;;12.98;8.98;;;;;;;-0.63;100.00;100669.13;6125221;23;20231;-81
2023/12/08 00:23:27;;;;;;;13.73;8.15;;;;;;;-0.60;100.00;100663.22;6149451;23;20029;-79
2023/12/08 00:25:54;;;;;;;15.02;9.93;;;;;;;-0.59;100.00;100655.56;6121792;23;20071;-81
2023/12/08 00:28:23;;;;;;;14.48;7.85;;;;;;;-0.61;100.00;100644.38;6149024;23;20064;-81
2023/12/08 00:30:53;;;;;;;13.50;7.72;;;;;;;-0.55;100.00;100646.28;6100542;23;20029;-80
2023/12/08 00:33:25;;;;;;;14.23;7.20;;;;;;;-0.54;100.00;100646.31;6101518;23;20036;-80
2023/12/08 00:35:52;;;;;;;19.10;8.88;;;;;;;-0.50;100.00;100634.47;6101798;23;20049;-82
2023/12/08 00:38:20;;;;;;;17.75;8.20;;;;;;;-0.49;100.00;100635.34;6100763;23;20025;-81
2023/12/08 00:40:49;;;;;;;14.65;7.57;;;;;;;-0.46;100.00;100617.44;6122770;23;20026;-78
2023/12/08 00:43:17;;;;;;;13.13;8.60;;;;;;;-0.39;100.00;100616.81;6100334;23;20487;-80
2023/12/08 00:45:46;;;;;;;10.40;7.22;;;;;;;-0.35;100.00;100608.41;6124787;23;20021;-80
2023/12/08 00:48:16;;;;;;;12.38;8.65;;;;;;;-0.30;100.00;100598.28;6098563;23;20021;-79
2023/12/08 00:50:47;;;;;;;15.02;8.25;;;;;;;-0.27;100.00;100599.25;6100904;23;20021;-79
2023/12/08 00:53:13;;;;;;;13.00;7.45;;;;;;;-0.24;100.00;100598.50;6123877;23;20033;-79
2023/12/08 00:55:41;;;;;;;12.77;7.72;;;;;;;-0.21;100.00;100596.00;6124375;23;20025;-80
2023/12/08 00:58:08;;;;;;;14.70;8.20;;;;;;;-0.20;100.00;100596.06;6124450;23;20017;-80
2023/12/08 01:00:36;;;;;;;14.32;7.88;;;;;;;-0.17;100.00;100600.44;6124584;23;20028;-80
2023/12/08 01:03:03;;;;;;;13.25;8.05;;;;;;;-0.15;100.00;100590.22;6123196;23;20057;-81
2023/12/08 01:05:32;;;;;;;15.27;8.10;;;;;;;-0.14;100.00;100603.13;6099487;23;20060;-80
2023/12/08 01:08:02;;;;;;;13.70;7.97;;;;;;;-0.12;100.00;100596.31;6102738;23;20031;-81
2023/12/08 01:10:29;;;;;;;15.80;8.40;;;;;;;-0.11;100.00;100590.34;6102496;23;20333;-81
2023/12/08 01:12:56;;;;;;;11.57;7.68;;;;;;;-0.14;100.00;100585.13;6101818;23;20045;-79
2023/12/08 01:15:23;;;;;;;16.17;9.18;;;;;;;-0.19;100.00;100594.38;6099990;23;20025;-79
2023/12/08 01:17:53;;;;;;;17.05;8.55;;;;;;;-0.25;100.00;100592.47;6100061;23;20032;-79
2023/12/08 01:20:21;;;;;;;16.83;8.88;;;;;;;-0.23;100.00;100595.09;6101609;23;20735;-80
2023/12/08 01:22:48;;;;;;;15.10;9.00;;;;;;;-0.31;100.00;100581.97;6099387;23;20410;-80
2023/12/08 01:25:17;;;;;;;16.23;9.98;;;;;;;-0.37;100.00;100577.47;6099113;23;20466;-79
2023/12/08 01:27:46;;;;;;;18.80;10.43;;;;;;;-0.38;100.00;100572.28;6098805;23;20275;-80
2023/12/08 01:30:13;;;;;;;18.50;9.75;;;;;;;-0.38;100.00;100559.44;6100311;23;20051;-80
2023/12/08 01:32:40;;;;;;;13.93;8.85;;;;;;;-0.47;100.00;100552.28;6124180;23;20080;-81
2023/12/08 01:35:10;;;;;;;11.30;8.10;;;;;;;-0.44;100.00;100546.34;6148551;23;20056;-81
2023/12/08 01:37:39;;;;;;;17.10;9.00;;;;;;;-0.40;100.00;100538.81;6123452;23;20178;-81
2023/12/08 01:40:07;;;;;;;20.67;9.13;;;;;;;-0.38;100.00;100541.41;6123679;23;20018;-82
2023/12/08 01:42:33;;;;;;;16.77;9.65;;;;;;;-0.38;100.00;100536.28;6096529;23;20036;-79
2023/12/08 01:45:00;;;;;;;18.73;9.70;;;;;;;-0.36;100.00;100532.94;6099334;23;20029;-80
2023/12/08 01:47:27;;;;;;;16.15;10.18;;;;;;;-0.37;100.00;100527.75;6099104;23;20854;-79
2023/12/08 01:49:56;;;;;;;17.15;9.82;;;;;;;-0.39;100.00;100516.53;6098324;23;20359;-81
2023/12/08 01:52:24;;;;;;;17.17;9.23;;;;;;;-0.43;100.00;100499.25;6124648;23;20414;-80
2023/12/08 01:54:56;;;;;;;15.52;9.10;;;;;;;-0.46;100.00;100504.28;6097285;23;20502;-79
2023/12/08 01:57:23;;;;;;;15.00;8.73;;;;;;;-0.50;100.00;100498.16;6122756;23;20025;-81
2023/12/08 01:59:53;;;;;;;14.05;8.57;;;;;;;-0.44;100.00;100498.38;6124877;23;20527;-80
2023/12/08 02:02:25;;;;;;;16.48;9.38;;;;;;;-0.46;100.00;100497.44;6123150;23;20057;-79
2023/12/08 02:04:58;;;;;;;18.35;9.05;;;;;;;-0.45;100.00;100488.91;6098610;23;20124;-80
2023/12/08 02:07:26;;;;;;;13.30;8.40;;;;;;;-0.47;100.00;100490.56;6099136;23;20100;-80
2023/12/08 02:09:54;;;;;;;17.27;9.30;;;;;;;-0.47;100.00;100480.28;6122393;23;20540;-80
2023/12/08 02:12:23;;;;;;;16.50;9.57;;;;;;;-0.43;100.00;100471.84;6098841;23;20140;-79
2023/12/08 02:14:52;;;;;;;14.27;8.10;;;;;;;-0.43;100.00;100470.94;6121051;23;20120;-80
2023/12/08 02:17:39;;;;;;;15.95;9.10;;;;;;;-0.35;100.00;100466.97;6096818;23;20101;-79
2023/12/08 02:20:10;;;;;;;16.33;8.75;;;;;;;-0.37;100.00;100468.59;6145687;23;20057;-80
2023/12/08 02:22:37;;;;;;;16.67;8.43;;;;;;;-0.42;100.00;100470.13;6122219;23;20029;-80
2023/12/08 02:25:03;;;;;;;14.60;8.85;;;;;;;-0.43;100.00;100460.66;6095366;23;20025;-79
2023/12/08 02:27:30;;;;;;;12.10;7.78;;;;;;;-0.41;100.00;100459.91;6097207;23;20026;-80
2023/12/08 02:29:57;;;;;;;14.23;8.93;;;;;;;-0.44;100.00;100462.38;6121685;23;20032;-79
2023/12/08 02:32:35;;;;;;;15.38;9.45;;;;;;;-0.38;100.00;100465.16;6147792;23;20025;-81
2023/12/08 02:35:08;;;;;;;17.05;8.85;;;;;;;-0.35;100.00;100456.66;6121399;23;20033;-80
2023/12/08 02:37:48;;;;;;;18.52;10.20;;;;;;;-0.30;100.00;100452.53;6122412;23;20021;-81
2023/12/08 02:40:18;;;;;;;14.75;7.80;;;;;;;-0.35;100.00;100452.38;6098410;23;20484;-81
2023/12/08 02:42:47;;;;;;;12.95;8.02;;;;;;;-0.28;100.00;100447.44;6100157;23;20025;-81
2023/12/08 02:45:14;;;;;;;14.75;8.32;;;;;;;-0.30;100.00;100447.41;6098552;23;20029;-82
2023/12/08 02:47:41;;;;;;;17.17;10.32;;;;;;;-0.30;100.00;100447.41;6096736;23;20032;-79
2023/12/08 02:50:08;;;;;;;16.33;9.13;;;;;;;-0.23;100.00;100453.59;6123823;23;20025;-81
2023/12/08 02:52:34;;;;;;;13.88;9.75;;;;;;;-0.26;100.00;100456.06;6125349;23;20053;-80
2023/12/08 02:55:01;;;;;;;15.15;8.40;;;;;;;-0.29;100.00;100455.97;6099406;23;20104;-79
2023/12/08 02:57:27;;;;;;;16.77;9.75;;;;;;;-0.23;100.00;100469.91;6125525;23;20434;-80
2023/12/08 02:59:54;;;;;;;14.15;8.88;;;;;;;-0.19;100.00;100482.03;6123931;23;20406;-81
2023/12/08 03:02:21;;;;;;;16.40;9.52;;;;;;;-0.18;100.00;100472.63;6099046;23;20116;-80
2023/12/08 03:04:47;;;;;;;16.20;8.95;;;;;;;-0.19;100.00;100468.31;6122946;23;20025;-79
2023/12/08 03:07:14;;;;;;;15.00;9.20;;;;;;;-0.22;100.00;100445.03;6123095;23;20025;-81
2023/12/08 03:09:40;;;;;;;14.63;8.35;;;;;;;-0.22;100.00;100432.19;6100988;23;20061;-80
2023/12/08 03:12:07;;;;;;;21.17;9.30;;;;;;;-0.24;100.00;100428.69;6123045;23;20017;-81
2023/12/08 03:14:34;;;;;;;13.98;8.98;;;;;;;-0.18;100.00;100429.75;6124765;23;20022;-81
2023/12/08 03:17:00;;;;;;;15.52;9.32;;;;;;;-0.26;100.00;100426.09;6123304;23;20021;-81
2023/12/08 03:19:29;;;;;;;17.27;9.38;;;;;;;-0.29;100.00;100407.97;6121938;23;20121;-81
2023/12/08 03:21:56;;;;;;;12.80;8.55;;;;;;;-0.28;100.00;100396.84;6122196;23;20052;-81
2023/12/08 03:24:23;;;;;;;18.50;8.77;;;;;;;-0.32;100.00;100395.03;6123024;23;20147;-79
2023/12/08 03:26:50;;;;;;;14.25;8.27;;;;;;;-0.32;100.00;100392.44;6123473;23;20128;-80
2023/12/08 03:29:16;;;;;;;15.73;9.07;;;;;;;-0.27;100.00;100390.91;6121901;23;20059;-80
2023/12/08 03:31:46;;;;;;;15.02;9.18;;;;;;;-0.35;100.00;100395.81;6123759;23;20084;-80
2023/12/08 03:34:13;;;;;;;17.70;10.20;;;;;;;-0.41;100.00;100377.59;6098572;23;20093;-79
2023/12/08 03:36:41;;;;;;;12.85;7.95;;;;;;;-0.38;100.00;100371.69;6123235;23;20017;-80
2023/12/08 03:39:13;;;;;;;21.00;9.65;;;;;;;-0.37;100.00;100355.44;6122379;23;20029;-81
2023/12/08 03:41:40;;;;;;;17.70;9.82;;;;;;;-0.40;100.00;100355.34;6098616;23;20026;-82
2023/12/08 03:44:07;;;;;;;16.48;9.40;;;;;;;-0.40;100.00;100335.63;6121814;23;20447;-80
2023/12/08 03:46:34;;;;;;;18.20;11.05;;;;;;;-0.43;100.00;100337.22;6098173;23;20053;-80
2023/12/08 03:49:01;;;;;;;16.20;9.32;;;;;;;-0.38;100.00;100338.25;6119214;23;20052;-81
2023/12/08 03:51:31;;;;;;;16.88;9.65;;;;;;;-0.40;100.00;100351.06;6099050;23;20450;-81
2023/12/08 03:54:04;;;;;;;17.10;10.25;;;;;;;-0.37;100.00;100348.56;6121081;23;20029;-82
2023/12/08 03:56:31;;;;;;;16.50;10.45;;;;;;;-0.33;100.00;100341.84;6075466;23;20100;-79
2023/12/08 03:58:59;;;;;;;16.17;9.38;;;;;;;-0.33;100.00;100357.25;6098259;23;20076;-81
2023/12/08 04:01:27;;;;;;;17.77;9.68;;;;;;;-0.29;100.00;100340.22;6123232;23;20436;-81
2023/12/08 04:03:54;;;;;;;20.30;11.43;;;;;;;-0.29;100.00;100346.22;6121943;23;20025;-79
2023/12/08 04:06:23;;;;;;;15.45;10.02;;;;;;;-0.24;100.00;100354.09;6097958;23;20475;-79
2023/12/08 04:08:51;;;;;;;17.35;10.38;;;;;;;-0.23;100.00;100345.56;6123498;23;20024;-80
2023/12/08 04:11:18;;;;;;;19.48;10.40;;;;;;;-0.18;100.00;100356.88;6097859;23;20061;-77
2023/12/08 04:13:46;;;;;;;20.30;10.52;;;;;;;-0.20;100.00;100356.78;6097384;23;20036;-79
2023/12/08 04:16:15;;;;;;;18.10;10.93;;;;;;;-0.14;100.00;100355.22;6099355;23;20076;-80
2023/12/08 04:18:41;;;;;;;17.77;10.20;;;;;;;-0.19;100.00;100352.53;6098400;23;20028;-80
2023/12/08 04:21:08;;;;;;;19.88;10.57;;;;;;;-0.20;100.00;100338.78;6122828;23;20077;-80
2023/12/08 04:23:35;;;;;;;17.80;10.13;;;;;;;-0.15;100.00;100341.50;6121799;23;20525;-81
2023/12/08 04:26:01;;;;;;;22.05;10.48;;;;;;;-0.15;100.00;100338.06;6098082;23;20128;-81
2023/12/08 04:28:28;;;;;;;17.33;10.65;;;;;;;-0.15;100.00;100340.66;6098963;23;20053;-80
2023/12/08 04:30:57;;;;;;;20.92;10.95;;;;;;;-0.16;100.00;100344.91;6122704;23;20017;-79
2023/12/08 04:33:22;;;;;;;19.90;10.93;;;;;;;-0.13;100.00;100345.00;6120464;23;20116;-80
2023/12/08 04:35:52;;;;;;;22.27;12.35;;;;;;;-0.08;100.00;100348.59;6098195;23;20501;-82
2023/12/08 04:38:19;;;;;;;18.95;11.00;;;;;;;-0.12;100.00;100333.00;6098227;23;20021;-80
2023/12/08 04:40:45;;;;;;;19.30;10.88;;;;;;;-0.17;100.00;100340.56;6123156;23;20017;-79
2023/12/08 04:43:12;;;;;;;21.92;12.18;;;;;;;-0.08;100.00;100348.59;6096757;23;20037;-81
2023/12/08 04:45:39;;;;;;;21.60;10.13;;;;;;;-0.06;100.00;100346.06;6123467;23;20021;-80
2023/12/08 04:48:06;;;;;;;18.25;10.88;;;;;;;-0.07;100.00;100341.75;6123113;23;20410;-81
2023/12/08 04:50:33;;;;;;;18.50;11.68;;;;;;;-0.01;100.00;100341.91;6099685;23;20026;-81
2023/12/08 04:53:01;;;;;;;16.63;10.57;;;;;;;-0.05;100.00;100340.09;6099429;23;20455;-79
2023/12/08 04:55:28;;;;;;;16.63;10.18;;;;;;;-0.02;100.00;100327.31;6098499;23;20025;-79
2023/12/08 04:57:55;;;;;;;18.02;10.55;;;;;;;-0.03;100.00;100338.41;6098607;23;20548;-79
2023/12/08 05:00:21;;;;;;;15.85;9.73;;;;;;;0.00;100.00;100348.81;6099398;23;20025;-80
2023/12/08 05:02:48;;;;;;;18.85;10.63;;;;;;;0.06;100.00;100343.81;6123308;23;20057;-79
2023/12/08 05:05:17;;;;;;;15.15;9.70;;;;;;;0.07;100.00;100347.28;6097734;23;20136;-82
2023/12/08 05:07:44;;;;;;;16.38;9.88;;;;;;;0.00;100.00;100346.25;6123522;23;20018;-80
2023/12/08 05:10:11;;;;;;;20.75;11.13;;;;;;;0.09;100.00;100351.66;6121631;23;20029;-80
2023/12/08 05:12:37;;;;;;;15.90;9.25;;;;;;;0.11;100.00;100347.41;6098936;23;20033;-81
2023/12/08 05:15:07;;;;;;;15.85;10.02;;;;;;;0.10;100.00;100349.94;6117966;23;20724;-83
2023/12/08 05:17:40;;;;;;;21.67;12.05;;;;;;;0.07;100.00;100349.88;6121248;23;20108;-80
2023/12/08 05:20:08;;;;;;;14.57;10.65;;;;;;;-0.01;100.00;100360.78;6098196;23;20026;-83
2023/12/08 05:22:37;;;;;;;14.80;9.82;;;;;;;0.04;100.00;100366.09;6099814;23;20434;-83
2023/12/08 05:25:12;;;;;;;15.43;9.10;;;;;;;0.03;100.00;100355.72;6099199;23;20116;-82
2023/12/08 05:27:39;;;;;;;16.25;9.52;;;;;;;0.03;100.00;100350.56;6097972;23;20381;-82
2023/12/08 05:30:07;;;;;;;17.80;9.80;;;;;;;0.01;100.00;100347.97;6097109;23;20116;-83
2023/12/08 05:32:34;;;;;;;18.23;10.60;;;;;;;0.06;100.00;100341.25;6097501;23;20021;-82
2023/12/08 05:35:07;;;;;;;16.95;9.77;;;;;;;0.19;100.00;100345.06;6122825;23;20025;-84
2023/12/08 05:37:33;;;;;;;19.17;11.70;;;;;;;0.18;100.00;100330.44;6099288;23;20113;-84
2023/12/08 05:40:00;;;;;;;17.40;10.15;;;;;;;0.23;100.00;100340.88;6125086;23;20048;-84
2023/12/08 05:42:29;;;;;;;17.45;10.15;;;;;;;0.11;100.00;100334.53;6124230;23;20029;-85
2023/12/08 05:44:56;;;;;;;18.92;10.32;;;;;;;0.12;100.00;100330.28;6123430;23;20033;-83
2023/12/08 05:47:22;;;;;;;14.80;10.05;;;;;;;0.06;100.00;100340.41;6099808;23;20592;-83
2023/12/08 05:49:49;;;;;;;19.20;9.57;;;;;;;0.10;100.00;100321.63;6124458;23;20021;-82
2023/12/08 05:52:16;;;;;;;17.27;9.93;;;;;;;0.06;100.00;100304.38;6126415;23;20088;-81
2023/12/08 05:54:43;;;;;;;17.50;11.90;;;;;;;0.05;100.00;100313.75;6097153;23;20041;-81
2023/12/08 05:57:10;;;;;;;16.85;9.63;;;;;;;0.07;100.00;100325.00;6122546;23;20018;-79
2023/12/08 05:59:37;;;;;;;17.70;10.15;;;;;;;0.12;100.00;100336.28;6101352;23;20026;-79
2023/12/08 06:02:04;;;;;;;21.40;9.82;;;;;;;0.20;100.00;100339.09;6127215;23;20478;-80
2023/12/08 06:04:30;;;;;;;20.10;11.27;;;;;;;0.18;100.00;100338.16;6124270;23;20032;-79
2023/12/08 06:06:57;;;;;;;14.25;9.25;;;;;;;0.19;100.00;100327.03;6113209;23;20051;-82
2023/12/08 06:09:25;;;;;;;16.10;8.93;;;;;;;0.19;100.00;100329.59;6125928;23;20021;-78
2023/12/08 06:11:51;;;;;;;20.17;11.45;;;;;;;0.28;100.00;100326.44;6123214;23;20028;-80
2023/12/08 06:14:18;;;;;;;15.27;9.25;;;;;;;0.22;99.95;100326.25;6096247;23;20080;-80
2023/12/08 06:16:45;;;;;;;14.48;8.85;;;;;;;0.19;99.90;100316.75;6094786;23;20036;-80
2023/12/08 06:19:12;;;;;;;16.30;10.80;;;;;;;0.16;100.00;100317.53;6123768;23;20423;-82
2023/12/08 06:21:38;;;;;;;16.17;9.95;;;;;;;0.15;99.97;100314.91;6122369;23;20029;-82
2023/12/08 06:24:05;;;;;;;17.13;9.43;;;;;;;0.16;99.72;100312.38;6099984;23;20029;-81
2023/12/08 06:26:32;;;;;;;16.50;10.93;;;;;;;0.22;99.90;100310.81;6100871;23;20021;-79
2023/12/08 06:28:59;;;;;;;17.23;9.57;;;;;;;0.20;100.00;100320.19;6099673;23;20032;-79
2023/12/08 06:31:25;;;;;;;17.40;9.60;;;;;;;0.12;100.00;100317.41;6099074;23;20446;-80
2023/12/08 06:33:52;;;;;;;19.13;10.93;;;;;;;0.18;99.95;100314.97;6146759;23;20137;-81
2023/12/08 06:36:19;;;;;;;17.23;9.77;;;;;;;0.16;100.00;100317.53;6099307;23;20029;-81
2023/12/08 06:38:46;;;;;;;15.15;8.23;;;;;;;0.22;99.87;100316.84;6099050;23;20025;-80
2023/12/08 06:41:12;;;;;;;17.95;10.35;;;;;;;0.27;99.50;100320.38;6123694;23;20414;-81
2023/12/08 06:43:42;;;;;;;16.40;9.98;;;;;;;0.26;99.59;100316.09;6100645;23;20025;-80
2023/12/08 06:46:11;;;;;;;14.55;9.35;;;;;;;0.27;99.43;100312.66;6149900;23;20041;-81
2023/12/08 06:48:38;;;;;;;13.25;8.00;;;;;;;0.26;98.75;100315.19;6100748;23;20026;-82
2023/12/08 06:51:08;;;;;;;15.35;9.60;;;;;;;0.28;98.83;100305.81;6124932;23;20026;-82
2023/12/08 06:53:34;;;;;;;14.38;8.02;;;;;;;0.33;98.47;100306.81;6149362;23;20518;-81
2023/12/08 06:56:06;;;;;;;12.40;7.93;;;;;;;0.40;97.60;100307.84;6123494;23;20025;-81
2023/12/08 06:58:33;;;;;;;13.10;7.20;;;;;;;0.40;97.53;100308.72;6099215;23;20076;-80
2023/12/08 07:01:02;;;;;;;16.05;8.57;;;;;;;0.39;97.43;100313.84;6124336;23;20022;-82
2023/12/08 07:03:30;;;;;;;14.60;8.07;;;;;;;0.44;97.70;100307.09;6123042;23;20029;-80
2023/12/08 07:05:57;;;;;;;13.95;7.10;;;;;;;0.47;97.53;100299.44;6123893;23;20068;-80
2023/12/08 07:08:26;;;;;;;12.73;7.40;;;;;;;0.53;97.09;100301.34;6098361;23;20029;-79
2023/12/08 07:10:55;;;;;;;15.63;8.10;;;;;;;0.56;97.48;100296.25;6124933;23;20021;-79
2023/12/08 07:13:22;;;;;;;15.77;8.13;;;;;;;0.50;97.39;100304.69;6122059;23;20100;-81
2023/12/08 07:15:48;;;;;;;18.92;7.85;;;;;;;0.51;98.34;100303.88;6099243;23;20025;-80
2023/12/08 07:18:18;;;;;;;12.80;7.78;;;;;;;0.54;98.08;100303.09;6101178;23;20013;-79
2023/12/08 07:20:45;;;;;;;11.45;7.80;;;;;;;0.53;98.61;100296.19;6130798;23;20040;-79
2023/12/08 07:23:12;;;;;;;10.98;7.30;;;;;;;0.53;99.29;100301.34;6126375;23;20231;-79
2023/12/08 07:25:39;;;;;;;12.27;8.00;;;;;;;0.53;98.86;100296.19;6108180;23;20036;-82
2023/12/08 07:28:19;;;;;;;14.68;7.55;;;;;;;0.46;99.89;100308.88;6137046;23;20013;-81
2023/12/08 07:30:46;;;;;;;13.43;7.82;;;;;;;0.43;100.00;100308.81;6139418;23;20021;-80
2023/12/08 07:33:18;;;;;;;13.88;7.95;;;;;;;0.37;100.00;100306.06;6113669;23;20362;-80
2023/12/08 07:35:45;;;;;;;9.70;7.18;;;;;;;0.35;100.00;100294.00;6139196;23;20036;-81
2023/12/08 07:38:13;;;;;;;13.02;7.90;;;;;;;0.40;100.00;100300.13;6114576;23;20028;-82
2023/12/08 07:40:40;;;;;;;12.45;8.25;;;;;;;0.31;100.00;100290.44;6138401;23;20103;-83
2023/12/08 07:43:07;;;;;;;15.55;8.45;;;;;;;0.35;100.00;100289.69;6113667;23;20041;-80
2023/12/08 07:45:37;;;;;;;13.90;7.55;;;;;;;0.36;100.00;100296.59;6138034;23;20031;-82
2023/12/08 07:48:05;;;;;;;12.30;7.50;;;;;;;0.37;100.00;100293.19;6142022;23;20097;-80
2023/12/08 07:50:32;;;;;;;13.63;8.77;;;;;;;0.38;100.00;100294.94;6138748;23;20036;-81
2023/12/08 07:53:03;;;;;;;10.77;7.03;;;;;;;0.35;100.00;100296.56;6138550;23;20021;-81
2023/12/08 07:55:29;;;;;;;12.88;7.22;;;;;;;0.36;100.00;100296.59;6114445;23;20111;-82
2023/12/08 07:58:00;;;;;;;12.77;7.60;;;;;;;0.37;100.00;100287.19;6116030;23;20018;-81
2023/12/08 08:00:27;;;;;;;11.93;7.13;;;;;;;0.41;100.00;100287.28;6139700;23;20294;-80
2023/12/08 08:02:54;;;;;;;13.73;8.85;;;;;;;0.38;100.00;100283.75;6111677;23;20076;-81
2023/12/08 08:05:24;;;;;;;15.27;9.20;;;;;;;0.28;100.00;100283.53;6134483;23;20025;-81
2023/12/08 08:07:53;;;;;;;14.68;7.72;;;;;;;0.27;100.00;100279.19;6137978;23;20613;-80
2023/12/08 08:10:22;;;;;;;17.75;9.27;;;;;;;0.25;100.00;100290.28;6111763;23;20049;-79
2023/12/08 08:12:49;;;;;;;22.92;9.50;;;;;;;0.18;100.00;100294.38;6136038;23;20025;-79
2023/12/08 08:15:17;;;;;;;14.68;8.93;;;;;;;0.14;100.00;100296.03;6111979;23;20025;-82
2023/12/08 08:17:44;;;;;;;15.55;9.43;;;;;;;0.12;100.00;100299.41;6110927;23;20447;-80
2023/12/08 08:20:11;;;;;;;15.43;9.57;;;;;;;0.12;100.00;100299.41;6112020;23;20120;-83
2023/12/08 08:22:42;;;;;;;18.67;9.98;;;;;;;0.08;100.00;100308.72;6113732;23;20056;-82
2023/12/08 08:25:09;;;;;;;14.27;9.52;;;;;;;0.13;100.00;100303.69;6138985;23;20025;-82
2023/12/08 08:27:40;;;;;;;13.70;8.77;;;;;;;0.16;100.00;100311.50;6114738;23;20514;-82
2023/12/08 08:30:11;;;;;;;16.40;9.38;;;;;;;0.19;100.00;100313.31;6139760;23;20021;-81
2023/12/08 08:32:41;;;;;;;17.35;9.82;;;;;;;0.23;100.00;100318.56;6138806;23;20068;-81
2023/12/08 08:35:09;;;;;;;14.88;9.00;;;;;;;0.29;100.00;100326.47;6138486;23;20025;-82
2023/12/08 08:37:36;;;;;;;12.70;7.63;;;;;;;0.31;100.00;100326.50;6114632;23;20055;-78
2023/12/08 08:40:05;;;;;;;18.42;9.57;;;;;;;0.27;100.00;100325.53;6142062;23;20021;-80
2023/12/08 08:42:33;;;;;;;16.58;9.32;;;;;;;0.32;100.00;100328.25;6115582;23;20025;-83
2023/12/08 08:45:04;;;;;;;13.93;9.20;;;;;;;0.32;100.00;100326.53;6135340;23;20056;-81
2023/12/08 08:47:32;;;;;;;15.75;9.93;;;;;;;0.29;100.00;100328.19;6111669;23;20055;-81
2023/12/08 08:49:59;;;;;;;14.15;8.02;;;;;;;0.18;100.00;100329.56;6111905;23;20032;-81
2023/12/08 08:52:30;;;;;;;17.45;10.05;;;;;;;0.14;100.00;100323.47;6136466;23;20081;-81
2023/12/08 08:54:57;;;;;;;19.08;10.25;;;;;;;0.18;100.00;100327.00;6137303;23;20026;-83
2023/12/08 08:57:24;;;;;;;17.60;8.57;;;;;;;0.13;100.00;100330.31;6112654;23;20060;-81
2023/12/08 08:59:54;;;;;;;16.92;9.45;;;;;;;0.12;100.00;100327.72;6136016;23;20017;-80
2023/12/08 09:02:24;;;;;;;17.40;9.80;;;;;;;0.07;100.00;100331.84;6135734;23;20523;-82
2023/12/08 09:05:06;;;;;;;18.58;10.05;;;;;;;0.04;100.00;100321.44;6136031;23;20032;-81
2023/12/08 09:07:39;;;;;;;17.13;8.48;;;;;;;-0.04;100.00;100324.69;6137556;23;20084;-81
2023/12/08 09:10:07;;;;;;;13.80;8.98;;;;;;;-0.02;100.00;100324.72;6112543;23;20041;-82
2023/12/08 09:12:34;;;;;;;17.40;10.25;;;;;;;-0.10;100.00;100326.22;6158373;23;20037;-82
2023/12/08 09:15:05;;;;;;;14.48;8.98;;;;;;;-0.15;100.00;100320.06;6104444;23;20037;-81
2023/12/08 09:17:40;;;;;;;13.73;8.90;;;;;;;-0.12;100.00;100323.56;6130614;23;20037;-82
2023/12/08 09:20:20;;;;;;;18.95;10.02;;;;;;;-0.20;100.00;100323.34;6129009;23;20022;-80
2023/12/08 09:22:47;;;;;;;15.82;9.30;;;;;;;-0.20;100.00;100318.22;6104100;23;20075;-84
2023/12/08 09:25:14;;;;;;;19.08;10.95;;;;;;;-0.21;100.00;100320.75;6102020;23;20068;-81
2023/12/08 09:27:43;;;;;;;17.27;10.98;;;;;;;-0.24;100.00;100326.66;6126313;23;20064;-82
2023/12/08 09:30:14;;;;;;;18.60;9.65;;;;;;;-0.24;100.00;100321.53;6100617;23;20080;-81
2023/12/08 09:32:44;;;;;;;18.00;10.82;;;;;;;-0.23;100.00;100322.41;6099089;23;20480;-81
2023/12/08 09:35:13;;;;;;;21.05;11.50;;;;;;;-0.22;100.00;100317.31;6125045;23;20021;-81
2023/12/08 09:37:40;;;;;;;19.77;10.52;;;;;;;-0.20;100.00;100317.34;6126590;23;20035;-80
2023/12/08 09:40:09;;;;;;;17.75;11.15;;;;;;;-0.15;100.00;100320.06;6101824;23;20021;-82
2023/12/08 09:42:48;;;;;;;17.50;9.93;;;;;;;-0.14;100.00;100314.97;6080052;23;20029;-83
2023/12/08 09:45:15;;;;;;;18.85;11.02;;;;;;;-0.23;100.00;100317.28;6100826;23;20021;-82
2023/12/08 09:47:42;;;;;;;24.10;10.77;;;;;;;-0.20;100.00;100292.47;6125547;23;20112;-81
2023/12/08 09:50:12;;;;;;;21.23;11.30;;;;;;;-0.24;100.00;100282.94;6102771;23;20022;-81
2023/12/08 09:52:41;;;;;;;18.13;10.68;;;;;;;-0.20;100.00;100287.34;6102236;23;20099;-81
2023/12/08 09:55:15;;;;;;;18.15;11.18;;;;;;;-0.17;100.00;100296.84;6104857;23;20056;-80
2023/12/08 09:57:53;;;;;;;18.83;10.70;;;;;;;-0.17;100.00;100287.44;6130456;23;20086;-83
2023/12/08 10:00:21;;;;;;;22.65;12.65;;;;;;;-0.10;100.00;100285.91;6103218;23;20053;-83
2023/12/08 10:02:49;;;;;;;20.40;10.60;;;;;;;-0.07;100.00;100292.84;6102718;23;20643;-84
2023/12/08 10:05:20;;;;;;;20.00;9.88;;;;;;;-0.12;100.00;100286.69;6102324;23;20033;-81
2023/12/08 10:07:50;;;;;;;20.38;10.32;;;;;;;0.00;100.00;100289.63;6126038;23;20104;-82
2023/12/08 10:10:21;;;;;;;19.67;10.65;;;;;;;-0.05;100.00;100284.34;6102546;23;20425;-80
2023/12/08 10:12:48;;;;;;;20.92;9.75;;;;;;;-0.13;100.00;100279.81;6102066;23;20025;-80
2023/12/08 10:15:19;;;;;;;19.15;10.38;;;;;;;-0.03;100.00;100274.97;6102014;23;20100;-82
2023/12/08 10:17:49;;;;;;;18.77;10.93;;;;;;;0.00;100.00;100269.06;6102799;23;20021;-81
2023/12/08 10:20:21;;;;;;;18.80;9.80;;;;;;;-0.05;100.00;100266.34;6125959;23;20103;-81
2023/12/08 10:22:54;;;;;;;18.65;10.65;;;;;;;-0.01;100.00;100267.28;6100411;23;20022;-83
2023/12/08 10:25:26;;;;;;;18.52;10.48;;;;;;;0.08;100.00;100257.25;6125581;23;20224;-81
2023/12/08 10:27:59;;;;;;;18.75;9.55;;;;;;;0.09;100.00;100255.53;6126850;23;20029;-80
2023/12/08 10:30:27;;;;;;;19.35;9.70;;;;;;;0.04;100.00;100255.44;6126548;23;20056;-80
2023/12/08 10:32:54;;;;;;;14.70;8.82;;;;;;;0.05;100.00;100243.41;6132398;23;20022;-80
2023/12/08 10:35:24;;;;;;;15.77;10.38;;;;;;;0.14;100.00;100236.84;6104108;23;20025;-80
2023/12/08 10:38:00;;;;;;;17.75;9.85;;;;;;;0.13;100.00;100237.66;6083646;23;20089;-78
2023/12/08 10:40:32;;;;;;;21.73;10.30;;;;;;;0.19;100.00;100242.09;6101985;23;20363;-81
2023/12/08 10:43:01;;;;;;;16.58;9.90;;;;;;;0.09;100.00;100228.13;6103662;23;20026;-84
2023/12/08 10:45:28;;;;;;;14.05;9.60;;;;;;;0.03;100.00;100234.78;6101950;23;20022;-80
2023/12/08 10:47:56;;;;;;;15.50;9.18;;;;;;;0.05;100.00;100230.56;6101305;23;20025;-82
2023/12/08 10:50:23;;;;;;;13.07;8.45;;;;;;;0.08;100.00;100230.63;6100098;23;20017;-82
2023/12/08 10:52:51;;;;;;;20.42;10.80;;;;;;;0.12;100.00;100225.63;6100939;23;20363;-80
2023/12/08 10:55:23;;;;;;;17.42;10.98;;;;;;;0.16;100.00;100226.56;6122828;23;20309;-80
2023/12/08 10:57:57;;;;;;;17.13;9.52;;;;;;;0.18;100.00;100231.75;6075101;23;20025;-79
2023/12/08 11:00:29;;;;;;;16.63;9.60;;;;;;;0.22;100.00;100241.28;6125909;23;20033;-79
2023/12/08 11:03:02;;;;;;;14.38;9.07;;;;;;;0.22;100.00;100233.56;6128175;23;20263;-82
2023/12/08 11:06:02;;;;;;;17.80;9.77;;;;;;;0.20;100.00;100242.97;6104974;23;20403;-81
2023/12/08 11:08:30;;;;;;;23.27;9.95;;;;;;;0.24;100.00;100248.22;6129233;23;20021;-81
2023/12/08 11:11:02;;;;;;;16.17;9.38;;;;;;;0.30;100.00;100253.53;6106832;23;20029;-83
2023/12/08 11:13:31;;;;;;;16.40;8.55;;;;;;;0.27;100.00;100256.03;6110382;23;20025;-80
2023/12/08 11:16:29;;;;;;;16.17;9.55;;;;;;;0.20;100.00;100241.25;6110302;23;20052;-84
2023/12/08 11:19:00;;;;;;;19.38;9.30;;;;;;;0.33;100.00;100237.31;6156417;23;20175;-82